sensor_id;sensor_type;location;lat;lon;timestamp;pressure;altitude;pressure_sealevel;temperature;humidity
6038;BME280;3047;42.600;23.470;2022-12-24T00:01:42;92905.16;;;4.40;100.00
6038;BME280;3047;42.600;23.470;2022-12-24T00:04:09;92903.47;;;4.43;100.00
6038;BME280;3047;42.600;23.470;2022-12-24T00:06:36;92896.13;;;4.27;100.00
6038;BME280;3047;42.600;23.470;2022-12-24T00:09:13;92900.38;;;4.14;100.00
6038;BME280;3047;42.600;23.470;2022-12-24T00:11:39;92900.31;;;4.20;100.00
6038;BME280;3047;42.600;23.470;2022-12-24T00:14:06;92897.84;;;4.18;100.00
6038;BME280;3047;42.600;23.470;2022-12-24T00:16:33;92895.34;;;4.18;100.00
6038;BME280;3047;42.600;23.470;2022-12-24T00:18:59;92893.66;;;4.22;100.00
6038;BME280;3047;42.600;23.470;2022-12-24T00:21:26;92891.16;;;4.20;100.00
6038;BME280;3047;42.600;23.470;2022-12-24T00:23:53;92891.16;;;4.20;100.00
6038;BME280;3047;42.600;23.470;2022-12-24T00:26:21;92892.00;;;4.19;100.00
6038;BME280;3047;42.600;23.470;2022-12-24T00:28:48;92889.53;;;4.15;100.00
6038;BME280;3047;42.600;23.470;2022-12-24T00:31:16;92894.47;;;4.24;100.00
6038;BME280;3047;42.600;23.470;2022-12-24T00:33:44;92865.47;;;4.03;100.00
6038;BME280;3047;42.600;23.470;2022-12-24T00:36:12;92896.19;;;4.17;100.00
6038;BME280;3047;42.600;23.470;2022-12-24T00:38:39;92901.06;;;4.33;100.00
6038;BME280;3047;42.600;23.470;2022-12-24T00:41:07;92886.13;;;4.27;100.00
6038;BME280;3047;42.600;23.470;2022-12-24T00:43:50;92654.88;;;2.90;100.00
6038;BME280;3047;42.600;23.470;2022-12-24T00:46:17;92883.47;;;4.43;100.00
6038;BME280;3047;42.600;23.470;2022-12-24T00:48:43;92883.41;;;4.51;100.00
6038;BME280;3047;42.600;23.470;2022-12-24T00:51:10;92891.84;;;4.39;100.00
6038;BME280;3047;42.600;23.470;2022-12-24T00:53:37;92884.44;;;4.30;100.00
6038;BME280;3047;42.600;23.470;2022-12-24T00:56:04;92856.34;;;3.96;100.00
6038;BME280;3047;42.600;23.470;2022-12-24T00:58:31;92892.06;;;4.13;100.00
6038;BME280;3047;42.600;23.470;2022-12-24T01:00:59;92779.19;;;3.58;100.00
6038;BME280;3047;42.600;23.470;2022-12-24T01:03:26;92851.41;;;3.88;100.00
6038;BME280;3047;42.600;23.470;2022-12-24T01:05:59;92844.75;;;3.90;100.00
6038;BME280;3047;42.600;23.470;2022-12-24T01:08:25;92892.88;;;4.12;100.00
6038;BME280;3047;42.600;23.470;2022-12-24T01:10:52;92896.16;;;4.19;100.00
6038;BME280;3047;42.600;23.470;2022-12-24T01:13:19;92891.09;;;4.25;100.00
6038;BME280;3047;42.600;23.470;2022-12-24T01:15:46;92889.47;;;4.26;100.00
6038;BME280;3047;42.600;23.470;2022-12-24T01:18:14;92891.09;;;4.28;100.00
6038;BME280;3047;42.600;23.470;2022-12-24T01:20:41;92890.34;;;4.21;100.00
6038;BME280;3047;42.600;23.470;2022-12-24T01:23:08;92884.47;;;4.24;100.00
6038;BME280;3047;42.600;23.470;2022-12-24T01:25:36;92883.63;;;4.27;100.00
6038;BME280;3047;42.600;23.470;2022-12-24T01:28:03;92814.78;;;3.86;100.00
6038;BME280;3047;42.600;23.470;2022-12-24T01:30:30;92892.75;;;4.31;100.00
6038;BME280;3047;42.600;23.470;2022-12-24T01:32:57;92890.34;;;4.21;100.00
6038;BME280;3047;42.600;23.470;2022-12-24T01:35:25;92890.31;;;4.23;100.00
6038;BME280;3047;42.600;23.470;2022-12-24T01:37:52;92891.09;;;4.30;100.00
6038;BME280;3047;42.600;23.470;2022-12-24T01:40:19;92885.41;;;4.11;100.00
6038;BME280;3047;42.600;23.470;2022-12-24T01:43:14;92881.28;;;4.01;100.00
6038;BME280;3047;42.600;23.470;2022-12-24T01:45:53;92839.72;;;3.89;100.00
6038;BME280;3047;42.600;23.470;2022-12-24T01:48:27;92882.19;;;3.93;100.00
6038;BME280;3047;42.600;23.470;2022-12-24T01:51:02;92872.16;;;4.00;100.00
6038;BME280;3047;42.600;23.470;2022-12-24T01:53:31;92885.31;;;4.23;100.00
6038;BME280;3047;42.600;23.470;2022-12-24T01:56:00;92885.38;;;4.14;100.00
6038;BME280;3047;42.600;23.470;2022-12-24T01:58:28;92852.31;;;3.81;100.00
6038;BME280;3047;42.600;23.470;2022-12-24T02:00:55;92898.66;;;4.22;100.00
6038;BME280;3047;42.600;23.470;2022-12-24T02:03:22;92892.81;;;4.23;100.00
6038;BME280;3047;42.600;23.470;2022-12-24T02:05:50;92888.72;;;4.14;100.00
6038;BME280;3047;42.600;23.470;2022-12-24T02:08:20;92882.84;;;4.17;100.00
6038;BME280;3047;42.600;23.470;2022-12-24T02:10:47;92881.22;;;4.11;100.00
6038;BME280;3047;42.600;23.470;2022-12-24T02:13:18;92877.13;;;4.06;100.00
6038;BME280;3047;42.600;23.470;2022-12-24T02:15:57;92867.94;;;4.09;100.00
6038;BME280;3047;42.600;23.470;2022-12-24T02:18:31;92866.28;;;4.04;100.00
6038;BME280;3047;42.600;23.470;2022-12-24T02:21:19;92823.91;;;3.91;100.00
6038;BME280;3047;42.600;23.470;2022-12-24T02:24:07;92855.47;;;4.03;100.00
6038;BME280;3047;42.600;23.470;2022-12-24T02:26:55;92873.00;;;3.95;100.00
6038;BME280;3047;42.600;23.470;2022-12-24T02:29:48;92835.78;;;3.62;100.00
6038;BME280;3047;42.600;23.470;2022-12-24T02:32:21;92878.09;;;3.83;100.00
6038;BME280;3047;42.600;23.470;2022-12-24T02:34:53;92883.13;;;3.79;100.00
6038;BME280;3047;42.600;23.470;2022-12-24T02:37:24;92861.50;;;3.75;100.00
6038;BME280;3047;42.600;23.470;2022-12-24T02:39:56;92876.38;;;3.88;100.00
6038;BME280;3047;42.600;23.470;2022-12-24T02:42:27;92871.31;;;4.02;100.00
6038;BME280;3047;42.600;23.470;2022-12-24T02:45:02;92867.19;;;3.95;100.00
6038;BME280;3047;42.600;23.470;2022-12-24T02:47:31;92867.94;;;4.05;100.00
6038;BME280;3047;42.600;23.470;2022-12-24T02:50:00;92866.38;;;3.93;100.00
6038;BME280;3047;42.600;23.470;2022-12-24T02:52:30;92879.69;;;3.92;100.00
6038;BME280;3047;42.600;23.470;2022-12-24T02:55:01;92822.47;;;3.61;100.00
6038;BME280;3047;42.600;23.470;2022-12-24T02:57:35;92869.66;;;3.98;100.00
6038;BME280;3047;42.600;23.470;2022-12-24T03:00:11;92862.19;;;3.95;100.00
6038;BME280;3047;42.600;23.470;2022-12-24T03:02:51;92858.94;;;3.81;100.00
6038;BME280;3047;42.600;23.470;2022-12-24T03:05:25;92852.31;;;3.81;100.00
6038;BME280;3047;42.600;23.470;2022-12-24T03:07:59;92855.59;;;3.86;100.00
6038;BME280;3047;42.600;23.470;2022-12-24T03:10:33;92848.88;;;3.91;100.00
6038;BME280;3047;42.600;23.470;2022-12-24T03:13:06;92847.28;;;3.86;100.00
6038;BME280;3047;42.600;23.470;2022-12-24T03:15:36;92852.34;;;3.72;100.00
6038;BME280;3047;42.600;23.470;2022-12-24T03:18:05;92825.84;;;3.54;100.00
6038;BME280;3047;42.600;23.470;2022-12-24T03:20:36;92849.78;;;3.86;100.00
6038;BME280;3047;42.600;23.470;2022-12-24T03:23:04;92837.41;;;3.66;100.00
6038;BME280;3047;42.600;23.470;2022-12-24T03:25:32;92853.97;;;3.76;100.00
6038;BME280;3047;42.600;23.470;2022-12-24T03:28:02;92847.34;;;3.72;100.00
6038;BME280;3047;42.600;23.470;2022-12-24T03:30:30;92852.34;;;3.75;100.00
6038;BME280;3047;42.600;23.470;2022-12-24T03:32:58;92849.88;;;3.69;100.00
6038;BME280;3047;42.600;23.470;2022-12-24T03:35:25;92855.59;;;3.85;100.00
6038;BME280;3047;42.600;23.470;2022-12-24T03:37:52;92848.97;;;3.82;100.00
6038;BME280;3047;42.600;23.470;2022-12-24T03:40:19;92854.03;;;3.70;100.00
6038;BME280;3047;42.600;23.470;2022-12-24T03:42:45;92850.66;;;3.79;100.00
6038;BME280;3047;42.600;23.470;2022-12-24T03:45:12;92850.69;;;3.71;100.00
6038;BME280;3047;42.600;23.470;2022-12-24T03:47:39;92852.38;;;3.69;100.00
6038;BME280;3047;42.600;23.470;2022-12-24T03:50:07;92826.72;;;3.49;100.00
6038;BME280;3047;42.600;23.470;2022-12-24T03:52:34;92859.03;;;3.70;100.00
6038;BME280;3047;42.600;23.470;2022-12-24T03:55:01;92853.91;;;3.88;100.00
6038;BME280;3047;42.600;23.470;2022-12-24T03:57:28;92856.38;;;3.93;100.00
6038;BME280;3047;42.600;23.470;2022-12-24T03:59:55;92858.97;;;3.79;100.00
6038;BME280;3047;42.600;23.470;2022-12-24T04:02:22;92857.28;;;3.80;100.00
6038;BME280;3047;42.600;23.470;2022-12-24T04:04:48;92867.28;;;3.83;100.00
6038;BME280;3047;42.600;23.470;2022-12-24T04:07:16;92869.78;;;3.83;100.00
6038;BME280;3047;42.600;23.470;2022-12-24T04:09:43;92865.63;;;3.80;100.00
6038;BME280;3047;42.600;23.470;2022-12-24T04:12:10;92868.91;;;3.90;100.00
6038;BME280;3047;42.600;23.470;2022-12-24T04:14:37;92871.50;;;3.71;100.00
6038;BME280;3047;42.600;23.470;2022-12-24T04:17:03;92874.00;;;3.73;100.00
6038;BME280;3047;42.600;23.470;2022-12-24T04:19:30;92864.09;;;3.56;100.00
6038;BME280;3047;42.600;23.470;2022-12-24T04:21:57;92851.59;;;3.62;100.00
6038;BME280;3047;42.600;23.470;2022-12-24T04:24:25;92869.03;;;3.67;100.00
6038;BME280;3047;42.600;23.470;2022-12-24T04:26:52;92825.88;;;3.46;100.00
6038;BME280;3047;42.600;23.470;2022-12-24T04:29:18;92854.03;;;3.70;100.00
6038;BME280;3047;42.600;23.470;2022-12-24T04:31:45;92887.28;;;3.80;100.00
6038;BME280;3047;42.600;23.470;2022-12-24T04:34:12;92891.53;;;3.64;100.00
6038;BME280;3047;42.600;23.470;2022-12-24T04:36:38;92877.41;;;3.60;100.00
6038;BME280;3047;42.600;23.470;2022-12-24T04:39:05;92898.13;;;3.74;100.00
6038;BME280;3047;42.600;23.470;2022-12-24T04:41:33;92907.25;;;3.77;100.00
6038;BME280;3047;42.600;23.470;2022-12-24T04:44:00;92882.31;;;3.75;100.00
6038;BME280;3047;42.600;23.470;2022-12-24T04:46:28;92882.31;;;3.72;100.00
6038;BME280;3047;42.600;23.470;2022-12-24T04:48:56;92812.66;;;3.28;100.00
6038;BME280;3047;42.600;23.470;2022-12-24T04:51:23;92895.63;;;3.79;100.00
6038;BME280;3047;42.600;23.470;2022-12-24T04:53:50;92904.78;;;3.75;100.00
6038;BME280;3047;42.600;23.470;2022-12-24T04:56:19;92916.47;;;3.71;100.00
6038;BME280;3047;42.600;23.470;2022-12-24T04:58:48;92918.13;;;3.77;100.00
6038;BME280;3047;42.600;23.470;2022-12-24T05:01:17;92905.56;;;3.85;100.00
6038;BME280;3047;42.600;23.470;2022-12-24T05:03:44;92908.94;;;3.76;100.00
6038;BME280;3047;42.600;23.470;2022-12-24T05:06:13;92909.78;;;3.72;100.00
6038;BME280;3047;42.600;23.470;2022-12-24T05:08:40;92903.94;;;3.78;100.00
6038;BME280;3047;42.600;23.470;2022-12-24T05:11:08;92909.72;;;3.86;100.00
6038;BME280;3047;42.600;23.470;2022-12-24T05:13:38;92849.06;;;3.64;100.00
6038;BME280;3047;42.600;23.470;2022-12-24T05:16:07;92885.59;;;3.80;100.00
6038;BME280;3047;42.600;23.470;2022-12-24T05:18:34;92898.03;;;3.91;100.00
6038;BME280;3047;42.600;23.470;2022-12-24T05:21:01;92893.06;;;3.85;100.00
6038;BME280;3047;42.600;23.470;2022-12-24T05:23:27;92888.06;;;3.85;100.00
6038;BME280;3047;42.600;23.470;2022-12-24T05:26:14;92834.16;;;3.53;100.00
6038;BME280;3047;42.600;23.470;2022-12-24T05:28:48;92869.81;;;3.78;100.00
6038;BME280;3047;42.600;23.470;2022-12-24T05:31:16;92863.13;;;3.80;100.00
6038;BME280;3047;42.600;23.470;2022-12-24T05:33:43;92806.72;;;3.47;100.00
6038;BME280;3047;42.600;23.470;2022-12-24T05:36:10;92862.22;;;3.90;100.00
6038;BME280;3047;42.600;23.470;2022-12-24T05:38:37;92868.16;;;3.74;100.00
6038;BME280;3047;42.600;23.470;2022-12-24T05:41:04;92860.75;;;3.59;100.00
6038;BME280;3047;42.600;23.470;2022-12-24T05:43:31;92869.81;;;3.72;100.00
6038;BME280;3047;42.600;23.470;2022-12-24T05:45:58;92872.31;;;3.75;100.00
6038;BME280;3047;42.600;23.470;2022-12-24T05:48:26;92868.97;;;3.78;100.00
6038;BME280;3047;42.600;23.470;2022-12-24T05:50:54;92875.63;;;3.79;100.00
6038;BME280;3047;42.600;23.470;2022-12-24T05:53:21;92877.28;;;3.80;100.00
6038;BME280;3047;42.600;23.470;2022-12-24T05:55:48;92854.81;;;3.81;100.00
6038;BME280;3047;42.600;23.470;2022-12-24T05:58:15;92879.75;;;3.84;100.00
6038;BME280;3047;42.600;23.470;2022-12-24T06:00:41;92824.97;;;3.60;100.00
6038;BME280;3047;42.600;23.470;2022-12-24T06:03:08;92876.34;;;3.97;100.00
6038;BME280;3047;42.600;23.470;2022-12-24T06:05:36;92853.09;;;3.85;100.00
6038;BME280;3047;42.600;23.470;2022-12-24T06:08:05;92860.53;;;3.92;100.00
6038;BME280;3047;42.600;23.470;2022-12-24T06:10:32;92848.19;;;3.74;100.00
6038;BME280;3047;42.600;23.470;2022-12-24T06:12:59;92865.59;;;3.83;100.00
6038;BME280;3047;42.600;23.470;2022-12-24T06:15:26;92869.78;;;3.81;100.00
6038;BME280;3047;42.600;23.470;2022-12-24T06:17:52;92868.88;;;3.94;100.00
6038;BME280;3047;42.600;23.470;2022-12-24T06:20:19;92867.19;;;3.92;100.00
6038;BME280;3047;42.600;23.470;2022-12-24T06:22:47;92860.53;;;3.94;100.00
6038;BME280;3047;42.600;23.470;2022-12-24T06:25:14;92882.09;;;4.07;100.00
6038;BME280;3047;42.600;23.470;2022-12-24T06:27:41;92883.66;;;4.22;100.00
6038;BME280;3047;42.600;23.470;2022-12-24T06:30:08;92886.25;;;4.08;100.00
6038;BME280;3047;42.600;23.470;2022-12-24T06:32:35;92882.03;;;4.15;100.00
6038;BME280;3047;42.600;23.470;2022-12-24T06:35:02;92893.56;;;4.31;100.00
6038;BME280;3047;42.600;23.470;2022-12-24T06:37:29;92894.44;;;4.27;100.00
6038;BME280;3047;42.600;23.470;2022-12-24T06:39:57;92881.25;;;4.08;100.00
6038;BME280;3047;42.600;23.470;2022-12-24T06:42:24;92907.94;;;4.06;100.00
6038;BME280;3047;42.600;23.470;2022-12-24T06:44:51;92913.72;;;4.14;100.00
6038;BME280;3047;42.600;23.470;2022-12-24T06:47:17;92917.00;;;4.19;100.00
6038;BME280;3047;42.600;23.470;2022-12-24T06:49:44;92922.88;;;4.11;100.00
6038;BME280;3047;42.600;23.470;2022-12-24T06:52:11;92922.13;;;4.03;100.00
6038;BME280;3047;42.600;23.470;2022-12-24T06:54:37;92921.28;;;4.02;100.00
6038;BME280;3047;42.600;23.470;2022-12-24T06:57:05;92926.13;;;4.27;100.00
6038;BME280;3047;42.600;23.470;2022-12-24T06:59:32;92923.63;;;4.27;100.00
6038;BME280;3047;42.600;23.470;2022-12-24T07:01:59;92924.44;;;4.27;100.00
6038;BME280;3047;42.600;23.470;2022-12-24T07:04:26;92929.53;;;4.12;100.00
6038;BME280;3047;42.600;23.470;2022-12-24T07:06:53;92930.47;;;3.95;100.00
6038;BME280;3047;42.600;23.470;2022-12-24T07:09:19;92923.75;;;4.04;100.00
6038;BME280;3047;42.600;23.470;2022-12-24T07:11:46;92930.34;;;4.18;100.00
6038;BME280;3047;42.600;23.470;2022-12-24T07:14:14;92908.66;;;4.22;100.00
6038;BME280;3047;42.600;23.470;2022-12-24T07:16:41;92915.16;;;4.41;100.00
6038;BME280;3047;42.600;23.470;2022-12-24T07:19:07;92914.22;;;4.53;100.00
6038;BME280;3047;42.600;23.470;2022-12-24T07:21:34;92919.97;;;4.61;100.00
6038;BME280;3047;42.600;23.470;2022-12-24T07:24:01;92924.06;;;4.71;100.00
6038;BME280;3047;42.600;23.470;2022-12-24T07:26:28;92914.88;;;4.74;100.00
6038;BME280;3047;42.600;23.470;2022-12-24T07:28:54;92913.19;;;4.79;100.00
6038;BME280;3047;42.600;23.470;2022-12-24T07:31:22;92923.00;;;4.94;100.00
6038;BME280;3047;42.600;23.470;2022-12-24T07:33:49;92906.31;;;4.96;100.00
6038;BME280;3047;42.600;23.470;2022-12-24T07:36:18;92923.63;;;5.14;100.00
6038;BME280;3047;42.600;23.470;2022-12-24T07:38:45;92891.22;;;5.07;100.00
6038;BME280;3047;42.600;23.470;2022-12-24T07:41:12;92926.78;;;5.33;100.00
6038;BME280;3047;42.600;23.470;2022-12-24T07:43:39;92930.06;;;5.40;100.00
6038;BME280;3047;42.600;23.470;2022-12-24T07:46:06;92913.47;;;5.31;100.00
6038;BME280;3047;42.600;23.470;2022-12-24T07:48:34;92937.44;;;5.52;100.00
6038;BME280;3047;42.600;23.470;2022-12-24T07:51:01;92874.34;;;5.21;100.00
6038;BME280;3047;42.600;23.470;2022-12-24T07:53:28;92898.38;;;5.34;100.00
6038;BME280;3047;42.600;23.470;2022-12-24T07:55:55;92943.09;;;5.68;100.00
6038;BME280;3047;42.600;23.470;2022-12-24T07:58:24;92928.88;;;5.68;100.00
6038;BME280;3047;42.600;23.470;2022-12-24T08:00:55;92942.88;;;5.85;100.00
6038;BME280;3047;42.600;23.470;2022-12-24T08:03:22;92947.78;;;5.91;100.00
6038;BME280;3047;42.600;23.470;2022-12-24T08:05:50;92916.97;;;5.83;100.00
6038;BME280;3047;42.600;23.470;2022-12-24T08:08:18;92956.78;;;6.07;100.00
6038;BME280;3047;42.600;23.470;2022-12-24T08:10:45;92957.59;;;6.09;100.00
6038;BME280;3047;42.600;23.470;2022-12-24T08:13:12;92918.59;;;5.88;100.00
6038;BME280;3047;42.600;23.470;2022-12-24T08:15:40;92935.97;;;6.04;100.00
6038;BME280;3047;42.600;23.470;2022-12-24T08:18:07;92970.72;;;6.27;100.00
6038;BME280;3047;42.600;23.470;2022-12-24T08:20:33;92971.44;;;6.36;100.00
6038;BME280;3047;42.600;23.470;2022-12-24T08:23:04;92969.69;;;6.41;100.00
6038;BME280;3047;42.600;23.470;2022-12-24T08:25:31;92983.78;;;6.50;100.00
6038;BME280;3047;42.600;23.470;2022-12-24T08:27:57;92982.06;;;6.54;100.00
6038;BME280;3047;42.600;23.470;2022-12-24T08:30:25;92967.78;;;6.56;100.00
6038;BME280;3047;42.600;23.470;2022-12-24T08:32:51;92970.22;;;6.62;100.00
6038;BME280;3047;42.600;23.470;2022-12-24T08:35:19;92965.16;;;6.63;100.00
6038;BME280;3047;42.600;23.470;2022-12-24T08:37:45;92968.66;;;6.55;100.00
6038;BME280;3047;42.600;23.470;2022-12-24T08:40:14;92965.25;;;6.59;100.00
6038;BME280;3047;42.600;23.470;2022-12-24T08:42:41;92948.41;;;6.65;100.00
6038;BME280;3047;42.600;23.470;2022-12-24T08:45:08;92957.31;;;6.83;100.00
6038;BME280;3047;42.600;23.470;2022-12-24T08:47:35;92902.59;;;6.54;100.00
6038;BME280;3047;42.600;23.470;2022-12-24T08:50:03;92958.84;;;6.93;100.00
6038;BME280;3047;42.600;23.470;2022-12-24T08:52:30;92950.41;;;6.98;100.00
6038;BME280;3047;42.600;23.470;2022-12-24T08:54:57;92936.13;;;7.00;100.00
6038;BME280;3047;42.600;23.470;2022-12-24T08:57:25;92936.06;;;7.03;100.00
6038;BME280;3047;42.600;23.470;2022-12-24T08:59:52;92926.63;;;7.15;100.00
6038;BME280;3047;42.600;23.470;2022-12-24T09:02:19;92858.56;;;6.84;100.00
6038;BME280;3047;42.600;23.470;2022-12-24T09:04:46;92920.47;;;7.32;100.00
6038;BME280;3047;42.600;23.470;2022-12-24T09:07:12;92908.91;;;7.23;100.00
6038;BME280;3047;42.600;23.470;2022-12-24T09:09:39;92939.56;;;7.42;100.00
6038;BME280;3047;42.600;23.470;2022-12-24T09:12:06;92931.06;;;7.48;100.00
6038;BME280;3047;42.600;23.470;2022-12-24T09:14:35;92940.34;;;7.44;100.00
6038;BME280;3047;42.600;23.470;2022-12-24T09:17:02;92954.50;;;7.50;100.00
6038;BME280;3047;42.600;23.470;2022-12-24T09:19:29;92960.53;;;7.39;100.00
6038;BME280;3047;42.600;23.470;2022-12-24T09:21:55;92963.00;;;7.41;100.00
6038;BME280;3047;42.600;23.470;2022-12-24T09:24:22;92956.28;;;7.43;100.00
6038;BME280;3047;42.600;23.470;2022-12-24T09:26:49;92951.16;;;7.48;100.00
6038;BME280;3047;42.600;23.470;2022-12-24T09:29:16;92942.84;;;7.44;100.00
6038;BME280;3047;42.600;23.470;2022-12-24T09:31:44;92946.03;;;7.54;100.00
6038;BME280;3047;42.600;23.470;2022-12-24T09:34:11;92938.41;;;7.57;100.00
6038;BME280;3047;42.600;23.470;2022-12-24T09:36:37;92949.16;;;7.65;100.00
6038;BME280;3047;42.600;23.470;2022-12-24T09:39:04;92935.13;;;7.53;100.00
6038;BME280;3047;42.600;23.470;2022-12-24T09:41:54;92946.78;;;7.57;100.00
6038;BME280;3047;42.600;23.470;2022-12-24T09:44:33;92888.97;;;7.15;100.00
6038;BME280;3047;42.600;23.470;2022-12-24T09:47:18;92934.06;;;7.65;100.00
6038;BME280;3047;42.600;23.470;2022-12-24T09:49:52;92927.38;;;7.64;100.00
6038;BME280;3047;42.600;23.470;2022-12-24T09:52:26;92941.69;;;7.62;100.00
6038;BME280;3047;42.600;23.470;2022-12-24T09:54:57;92941.78;;;7.56;100.00
6038;BME280;3047;42.600;23.470;2022-12-24T09:57:31;92943.47;;;7.55;100.00
6038;BME280;3047;42.600;23.470;2022-12-24T10:00:01;92942.72;;;7.52;100.00
6038;BME280;3047;42.600;23.470;2022-12-24T10:02:30;92945.19;;;7.53;100.00
6038;BME280;3047;42.600;23.470;2022-12-24T10:04:57;92938.50;;;7.52;100.00
6038;BME280;3047;42.600;23.470;2022-12-24T10:07:31;92936.72;;;7.59;100.00
6038;BME280;3047;42.600;23.470;2022-12-24T10:10:11;92934.34;;;7.51;100.00
6038;BME280;3047;42.600;23.470;2022-12-24T10:12:47;92902.09;;;7.30;100.00
6038;BME280;3047;42.600;23.470;2022-12-24T10:15:23;92903.94;;;7.22;100.00
6038;BME280;3047;42.600;23.470;2022-12-24T10:18:06;92940.44;;;7.39;100.00
6038;BME280;3047;42.600;23.470;2022-12-24T10:20:43;92941.25;;;7.40;100.00
6038;BME280;3047;42.600;23.470;2022-12-24T10:23:19;92942.09;;;7.40;100.00
6038;BME280;3047;42.600;23.470;2022-12-24T10:25:52;92892.44;;;7.08;100.00
6038;BME280;3047;42.600;23.470;2022-12-24T10:28:29;92921.22;;;7.37;100.00
6038;BME280;3047;42.600;23.470;2022-12-24T10:31:01;92911.94;;;7.40;100.00
6038;BME280;3047;42.600;23.470;2022-12-24T10:33:35;92912.06;;;7.34;100.00
6038;BME280;3047;42.600;23.470;2022-12-24T10:36:05;92844.25;;;6.89;100.00
6038;BME280;3047;42.600;23.470;2022-12-24T10:38:34;92926.16;;;7.41;100.00
6038;BME280;3047;42.600;23.470;2022-12-24T10:41:01;92915.88;;;7.54;100.00
6038;BME280;3047;42.600;23.470;2022-12-24T10:43:29;92910.03;;;7.52;100.00
6038;BME280;3047;42.600;23.470;2022-12-24T10:45:58;92902.53;;;7.50;100.00
6038;BME280;3047;42.600;23.470;2022-12-24T10:48:28;92914.88;;;7.62;100.00
6038;BME280;3047;42.600;23.470;2022-12-24T10:51:00;92923.09;;;7.69;100.00
6038;BME280;3047;42.600;23.470;2022-12-24T10:53:35;92924.84;;;7.65;100.00
6038;BME280;3047;42.600;23.470;2022-12-24T10:56:05;92904.91;;;7.56;100.00
6038;BME280;3047;42.600;23.470;2022-12-24T10:58:33;92904.91;;;7.58;100.00
6038;BME280;3047;42.600;23.470;2022-12-24T11:01:01;92896.41;;;7.63;100.00
6038;BME280;3047;42.600;23.470;2022-12-24T11:03:30;92899.53;;;7.73;100.00
6038;BME280;3047;42.600;23.470;2022-12-24T11:06:10;92903.72;;;7.74;100.00
6038;BME280;3047;42.600;23.470;2022-12-24T11:08:39;92915.38;;;7.78;100.00
6038;BME280;3047;42.600;23.470;2022-12-24T11:11:07;92911.78;;;7.90;100.00
6038;BME280;3047;42.600;23.470;2022-12-24T11:13:36;92913.19;;;8.02;100.00
6038;BME280;3047;42.600;23.470;2022-12-24T11:16:06;92921.53;;;8.04;100.00
6038;BME280;3047;42.600;23.470;2022-12-24T11:18:35;92919.91;;;8.03;100.00
6038;BME280;3047;42.600;23.470;2022-12-24T11:21:05;92930.22;;;7.90;100.00
6038;BME280;3047;42.600;23.470;2022-12-24T11:23:31;92927.75;;;7.87;100.00
6038;BME280;3047;42.600;23.470;2022-12-24T11:25:58;92920.66;;;8.05;100.00
6038;BME280;3047;42.600;23.470;2022-12-24T11:28:27;92872.44;;;7.87;100.00
6038;BME280;3047;42.600;23.470;2022-12-24T11:30:57;92909.41;;;8.21;100.00
6038;BME280;3047;42.600;23.470;2022-12-24T11:33:25;92905.19;;;8.23;100.00
6038;BME280;3047;42.600;23.470;2022-12-24T11:35:55;92877.13;;;8.03;100.00
6038;BME280;3047;42.600;23.470;2022-12-24T11:38:25;92896.78;;;8.24;100.00
6038;BME280;3047;42.600;23.470;2022-12-24T11:41:07;92887.63;;;8.20;100.00
6038;BME280;3047;42.600;23.470;2022-12-24T11:43:39;92915.00;;;8.34;100.00
6038;BME280;3047;42.600;23.470;2022-12-24T11:46:21;92919.09;;;8.39;100.00
6038;BME280;3047;42.600;23.470;2022-12-24T11:49:15;92922.94;;;8.54;100.00
6038;BME280;3047;42.600;23.470;2022-12-24T11:52:00;92927.78;;;8.62;100.00
6038;BME280;3047;42.600;23.470;2022-12-24T11:54:33;92931.38;;;8.53;100.00
6038;BME280;3047;42.600;23.470;2022-12-24T11:57:02;92918.53;;;8.64;100.00
6038;BME280;3047;42.600;23.470;2022-12-24T11:59:32;92914.25;;;8.68;100.00
6038;BME280;3047;42.600;23.470;2022-12-24T12:02:05;92913.50;;;8.64;100.00
6038;BME280;3047;42.600;23.470;2022-12-24T12:04:40;92922.13;;;8.54;100.00
6038;BME280;3047;42.600;23.470;2022-12-24T12:07:12;92922.84;;;8.59;100.00
6038;BME280;3047;42.600;23.470;2022-12-24T12:09:43;92920.25;;;8.62;100.00
6038;BME280;3047;42.600;23.470;2022-12-24T12:12:15;92908.47;;;8.64;100.00
6038;BME280;3047;42.600;23.470;2022-12-24T12:14:47;92914.28;;;8.66;100.00
6038;BME280;3047;42.600;23.470;2022-12-24T12:17:23;92895.88;;;8.64;100.00
6038;BME280;3047;42.600;23.470;2022-12-24T12:19:56;92913.31;;;8.72;100.00
6038;BME280;3047;42.600;23.470;2022-12-24T12:22:27;92914.25;;;8.68;100.00
6038;BME280;3047;42.600;23.470;2022-12-24T12:24:59;92898.41;;;8.62;100.00
6038;BME280;3047;42.600;23.470;2022-12-24T12:27:31;92928.38;;;8.73;100.00
6038;BME280;3047;42.600;23.470;2022-12-24T12:30:01;92871.19;;;8.42;100.00
6038;BME280;3047;42.600;23.470;2022-12-24T12:32:39;92880.44;;;8.44;100.00
6038;BME280;3047;42.600;23.470;2022-12-24T12:35:15;92900.22;;;8.57;100.00
6038;BME280;3047;42.600;23.470;2022-12-24T12:37:47;92909.97;;;8.71;100.00
6038;BME280;3047;42.600;23.470;2022-12-24T12:40:19;92909.97;;;8.71;100.00
6038;BME280;3047;42.600;23.470;2022-12-24T12:42:52;92923.16;;;8.81;100.00
6038;BME280;3047;42.600;23.470;2022-12-24T12:45:32;92921.41;;;8.83;100.00
6038;BME280;3047;42.600;23.470;2022-12-24T12:48:20;92916.34;;;8.84;100.00
6038;BME280;3047;42.600;23.470;2022-12-24T12:50:53;92902.44;;;8.70;100.00
6038;BME280;3047;42.600;23.470;2022-12-24T12:53:34;92927.22;;;8.86;100.00
6038;BME280;3047;42.600;23.470;2022-12-24T12:56:13;92928.16;;;8.82;100.00
6038;BME280;3047;42.600;23.470;2022-12-24T12:58:46;92923.94;;;8.83;100.00
6038;BME280;3047;42.600;23.470;2022-12-24T13:01:19;92913.31;;;8.72;100.00
6038;BME280;3047;42.600;23.470;2022-12-24T13:04:09;92932.34;;;8.83;100.00
6038;BME280;3047;42.600;23.470;2022-12-24T13:07:01;92937.44;;;8.80;100.00
6038;BME280;3047;42.600;23.470;2022-12-24T13:09:55;92949.16;;;8.81;100.00
6038;BME280;3047;42.600;23.470;2022-12-24T13:12:38;92951.25;;;8.64;100.00
6038;BME280;3047;42.600;23.470;2022-12-24T13:15:35;92916.59;;;8.39;100.00
6038;BME280;3047;42.600;23.470;2022-12-24T13:18:19;92942.94;;;8.60;100.00
6038;BME280;3047;42.600;23.470;2022-12-24T13:20:51;92948.00;;;8.60;100.00
6038;BME280;3047;42.600;23.470;2022-12-24T13:23:20;92948.97;;;8.53;100.00
6038;BME280;3047;42.600;23.470;2022-12-24T13:25:49;92954.81;;;8.55;100.00